createdAt,value
2022-08-03T00:00:36.192Z,21.79
2022-08-03T00:01:36.238Z,21.79
2022-08-03T00:02:36.262Z,21.78
2022-08-03T00:03:36.170Z,21.76
2022-08-03T00:04:36.135Z,21.74
2022-08-03T00:05:36.102Z,21.71
2022-08-03T00:06:37.289Z,21.67
2022-08-03T00:07:36.114Z,21.69
2022-08-03T00:08:40.190Z,21.67
2022-08-03T00:09:36.110Z,21.64
2022-08-03T00:10:36.062Z,21.71
2022-08-03T00:11:36.041Z,21.74
2022-08-03T00:12:36.038Z,21.78
2022-08-03T00:13:36.242Z,21.75
2022-08-03T00:14:35.994Z,21.71
2022-08-03T00:15:36.065Z,21.64
2022-08-03T00:16:35.979Z,21.60
2022-08-03T00:17:53.293Z,21.56
2022-08-03T00:18:36.973Z,21.56
2022-08-03T00:19:36.111Z,21.53
2022-08-03T00:20:35.981Z,21.50
2022-08-03T00:21:35.919Z,21.50
2022-08-03T00:22:35.951Z,21.50
2022-08-03T00:23:52.363Z,21.46
2022-08-03T00:24:36.890Z,21.44
2022-08-03T00:25:35.949Z,21.41
2022-08-03T00:26:35.839Z,21.41
2022-08-03T00:27:35.903Z,21.35
2022-08-03T00:28:35.891Z,21.34
2022-08-03T00:29:59.340Z,21.35
2022-08-03T00:30:36.788Z,21.32
2022-08-03T00:31:51.609Z,21.30
2022-08-03T00:32:36.846Z,21.27
2022-08-03T00:33:58.244Z,21.29
2022-08-03T00:34:57.818Z,21.29
2022-08-03T00:35:50.718Z,21.26
2022-08-03T00:36:36.758Z,21.23
2022-08-03T00:37:41.030Z,21.23
2022-08-03T00:38:36.702Z,21.23
2022-08-03T00:39:35.676Z,21.21
2022-08-03T00:40:35.666Z,21.21
2022-08-03T00:41:35.645Z,21.17
2022-08-03T00:42:38.453Z,21.16
2022-08-03T00:43:36.672Z,21.14
2022-08-03T00:44:35.709Z,21.13
2022-08-03T00:45:35.718Z,21.06
2022-08-03T00:46:35.574Z,21.05
2022-08-03T00:47:35.604Z,21.02
2022-08-03T00:48:35.634Z,20.98
2022-08-03T00:49:35.683Z,20.99
2022-08-03T00:50:36.250Z,21.02
2022-08-03T00:51:35.552Z,21.04
2022-08-03T00:52:35.581Z,21.06
2022-08-03T00:53:35.488Z,21.05
2022-08-03T00:54:36.166Z,21.01
2022-08-03T00:55:35.457Z,20.99
2022-08-03T00:56:35.456Z,20.98
2022-08-03T00:57:35.747Z,20.95
2022-08-03T00:58:35.509Z,20.95
2022-08-03T00:59:35.435Z,20.90
2022-08-03T01:00:35.418Z,20.89
2022-08-03T01:01:35.457Z,20.81
2022-08-03T01:02:36.143Z,20.81
2022-08-03T01:03:35.403Z,20.80
2022-08-03T01:04:35.440Z,20.81
2022-08-03T01:05:35.392Z,20.80
2022-08-03T01:06:35.415Z,20.79
2022-08-03T01:07:35.384Z,20.79
2022-08-03T01:08:35.450Z,20.76
2022-08-03T01:09:35.369Z,20.72
2022-08-03T01:10:35.303Z,20.69
2022-08-03T01:11:35.309Z,20.68
2022-08-03T01:12:35.287Z,20.66
2022-08-03T01:14:01.176Z,20.65
2022-08-03T01:14:36.334Z,20.62
2022-08-03T01:15:35.210Z,20.61
2022-08-03T01:16:35.768Z,20.61
2022-08-03T01:17:35.315Z,20.59
2022-08-03T01:18:35.232Z,20.66
2022-08-03T01:19:35.334Z,20.68
2022-08-03T01:20:35.160Z,20.72
2022-08-03T01:21:35.369Z,20.76
2022-08-03T01:22:35.213Z,20.79
2022-08-03T01:23:35.095Z,20.72
2022-08-03T01:24:35.169Z,20.74
2022-08-03T01:25:35.180Z,20.80
2022-08-03T01:26:35.061Z,20.81
2022-08-03T01:27:35.058Z,20.83
2022-08-03T01:28:35.720Z,20.87
2022-08-03T01:29:35.051Z,20.87
2022-08-03T01:30:35.035Z,20.91
2022-08-03T01:31:35.025Z,20.90
2022-08-03T01:32:58.207Z,20.84
2022-08-03T01:33:35.962Z,20.80
2022-08-03T01:34:34.992Z,20.74
2022-08-03T01:35:38.268Z,20.74
2022-08-03T01:36:34.937Z,20.71
2022-08-03T01:37:34.935Z,20.68
2022-08-03T01:38:35.048Z,20.69
2022-08-03T01:39:34.940Z,20.71
2022-08-03T01:40:35.612Z,20.74
2022-08-03T01:41:34.939Z,20.77
2022-08-03T01:42:35.853Z,20.76
2022-08-03T01:44:27.918Z,20.72
2022-08-03T01:44:35.838Z,20.76
2022-08-03T01:45:35.010Z,20.77
2022-08-03T01:46:34.879Z,20.77
2022-08-03T01:47:35.095Z,20.76
2022-08-03T01:48:34.809Z,20.79
2022-08-03T01:49:34.857Z,20.81
2022-08-03T01:50:34.759Z,20.87
2022-08-03T01:51:57.680Z,20.93
2022-08-03T01:52:35.746Z,20.98
2022-08-03T01:53:34.801Z,21.01
2022-08-03T01:54:34.732Z,20.96
2022-08-03T01:55:34.777Z,20.93
2022-08-03T01:56:34.740Z,20.86
2022-08-03T01:57:34.825Z,20.81
2022-08-03T01:58:35.661Z,20.77
2022-08-03T01:59:34.714Z,20.71
2022-08-03T02:00:34.671Z,20.65
2022-08-03T02:02:27.683Z,20.58
2022-08-03T02:02:36.218Z,20.51
2022-08-03T02:03:35.443Z,20.47
2022-08-03T02:04:34.671Z,20.42
2022-08-03T02:05:35.782Z,20.41
2022-08-03T02:07:00.030Z,20.39
2022-08-03T02:07:35.536Z,20.39
2022-08-03T02:08:34.516Z,20.38
2022-08-03T02:09:34.510Z,20.35
2022-08-03T02:10:36.014Z,20.31
2022-08-03T02:11:34.498Z,20.33
2022-08-03T02:12:34.539Z,20.31
2022-08-03T02:13:34.509Z,20.27
2022-08-03T02:14:34.440Z,20.28
2022-08-03T02:15:34.489Z,20.28
2022-08-03T02:16:34.773Z,20.31
2022-08-03T02:17:39.724Z,20.35
2022-08-03T02:18:35.431Z,20.39
2022-08-03T02:19:35.838Z,20.39
2022-08-03T02:20:34.364Z,20.41
2022-08-03T02:21:57.408Z,20.41
2022-08-03T02:22:35.417Z,20.41
2022-08-03T02:23:34.323Z,20.39
2022-08-03T02:24:34.365Z,20.38
2022-08-03T02:25:34.282Z,20.33
2022-08-03T02:26:34.346Z,20.34
2022-08-03T02:27:34.356Z,20.34
2022-08-03T02:28:34.401Z,20.34
2022-08-03T02:29:39.734Z,20.33
2022-08-03T02:30:35.241Z,20.31
2022-08-03T02:31:34.290Z,20.27
2022-08-03T02:32:34.248Z,20.24
2022-08-03T02:33:34.340Z,20.21
2022-08-03T02:34:34.235Z,20.18
2022-08-03T02:35:34.161Z,20.15
2022-08-03T02:36:34.177Z,20.12
2022-08-03T02:37:34.134Z,20.08
2022-08-03T02:38:34.129Z,20.06
2022-08-03T02:39:34.105Z,20.05
2022-08-03T02:40:34.100Z,20.03
2022-08-03T02:41:34.148Z,19.98
2022-08-03T02:42:34.148Z,20.00
2022-08-03T02:43:40.225Z,19.97
2022-08-03T02:44:35.953Z,19.95
2022-08-03T02:45:34.116Z,19.93
2022-08-03T02:46:34.099Z,19.94
2022-08-03T02:47:53.463Z,19.95
2022-08-03T02:48:35.030Z,19.97
2022-08-03T02:49:42.709Z,19.95
2022-08-03T02:50:35.004Z,20.00
2022-08-03T02:51:34.145Z,19.97
2022-08-03T02:52:33.959Z,19.94
2022-08-03T02:53:34.061Z,19.93
2022-08-03T02:54:33.920Z,19.93
2022-08-03T02:55:33.917Z,19.93
2022-08-03T02:56:34.048Z,19.93
2022-08-03T02:57:34.705Z,19.90
2022-08-03T02:58:33.858Z,19.88
2022-08-03T02:59:33.897Z,19.91
2022-08-03T03:00:33.963Z,19.95
2022-08-03T03:01:35.120Z,19.94
2022-08-03T03:02:33.821Z,20.00
2022-08-03T03:03:37.257Z,19.98
2022-08-03T03:04:34.804Z,20.00
2022-08-03T03:05:54.594Z,19.98
2022-08-03T03:06:34.782Z,19.97
2022-08-03T03:07:39.802Z,19.95
2022-08-03T03:08:34.796Z,19.95
2022-08-03T03:09:41.712Z,19.95
2022-08-03T03:10:34.727Z,19.95
2022-08-03T03:11:33.703Z,19.97
2022-08-03T03:12:33.780Z,19.95
2022-08-03T03:13:33.780Z,19.93
2022-08-03T03:14:34.210Z,19.93
2022-08-03T03:15:33.700Z,19.87
2022-08-03T03:16:33.666Z,19.87
2022-08-03T03:17:33.630Z,19.86
2022-08-03T03:18:33.977Z,19.84
2022-08-03T03:19:33.610Z,19.80
2022-08-03T03:20:33.695Z,19.79
2022-08-03T03:21:33.620Z,19.75
2022-08-03T03:22:33.549Z,19.75
2022-08-03T03:23:34.070Z,19.73
2022-08-03T03:24:34.201Z,19.75
2022-08-03T03:25:33.531Z,19.75
2022-08-03T03:26:33.511Z,19.76
2022-08-03T03:27:34.191Z,19.75
2022-08-03T03:28:34.355Z,19.78
2022-08-03T03:29:39.486Z,19.75
2022-08-03T03:30:34.440Z,19.75
2022-08-03T03:31:33.529Z,19.73
2022-08-03T03:32:33.494Z,19.70
2022-08-03T03:33:33.412Z,19.70
2022-08-03T03:34:33.422Z,19.69
2022-08-03T03:35:38.948Z,19.70
2022-08-03T03:36:34.431Z,19.69
2022-08-03T03:37:34.052Z,19.65
2022-08-03T03:38:33.352Z,19.63
2022-08-03T03:39:33.449Z,19.60
2022-08-03T03:40:33.313Z,19.58
2022-08-03T03:41:37.736Z,19.55
2022-08-03T03:42:33.305Z,19.60
2022-08-03T03:43:33.401Z,19.61
2022-08-03T03:44:33.353Z,19.68
2022-08-03T03:45:33.291Z,19.68
2022-08-03T03:46:33.955Z,19.69
2022-08-03T03:47:33.358Z,19.65
2022-08-03T03:48:33.227Z,19.65
2022-08-03T03:49:33.249Z,19.63
2022-08-03T03:50:33.229Z,19.61
2022-08-03T03:51:33.406Z,19.60
2022-08-03T03:52:33.225Z,19.65
2022-08-03T03:53:33.186Z,19.58
2022-08-03T03:54:33.185Z,19.57
2022-08-03T03:55:33.174Z,19.54
2022-08-03T03:56:34.141Z,19.55
2022-08-03T03:57:33.093Z,19.58
2022-08-03T03:58:33.772Z,19.63
2022-08-03T03:59:33.065Z,19.60
2022-08-03T04:00:33.157Z,19.61
2022-08-03T04:01:34.078Z,19.61
2022-08-03T04:02:33.077Z,19.61
2022-08-03T04:03:33.736Z,19.60
2022-08-03T04:04:33.098Z,19.55
2022-08-03T04:05:33.004Z,19.55
2022-08-03T04:06:33.052Z,19.54
2022-08-03T04:07:32.986Z,19.54
2022-08-03T04:08:32.957Z,19.53
2022-08-03T04:09:32.976Z,19.54
2022-08-03T04:10:33.172Z,19.53
2022-08-03T04:11:32.946Z,19.48
2022-08-03T04:12:32.971Z,19.48
2022-08-03T04:13:32.887Z,19.50
2022-08-03T04:14:32.883Z,19.46
2022-08-03T04:15:33.815Z,19.46
2022-08-03T04:16:33.019Z,19.47
2022-08-03T04:17:32.918Z,19.50
2022-08-03T04:18:33.580Z,19.50
2022-08-03T04:19:32.866Z,19.54
2022-08-03T04:20:32.802Z,19.55
2022-08-03T04:21:32.848Z,19.55
2022-08-03T04:22:32.824Z,19.53
2022-08-03T04:23:32.764Z,19.53
2022-08-03T04:24:33.070Z,19.54
2022-08-03T04:25:32.723Z,19.53
2022-08-03T04:26:32.771Z,19.57
2022-08-03T04:27:32.723Z,19.55
2022-08-03T04:28:32.788Z,19.58
2022-08-03T04:29:32.670Z,19.57
2022-08-03T04:30:32.698Z,19.57
2022-08-03T04:31:32.681Z,19.58
2022-08-03T04:32:32.688Z,19.60
2022-08-03T04:33:32.640Z,19.60
2022-08-03T04:34:32.635Z,19.65
2022-08-03T04:36:01.594Z,19.66
2022-08-03T04:36:33.583Z,19.66
2022-08-03T04:37:32.689Z,19.68
2022-08-03T04:38:32.574Z,19.69
2022-08-03T04:39:32.553Z,19.72
2022-08-03T04:40:32.535Z,19.70
2022-08-03T04:41:32.589Z,19.70
2022-08-03T04:42:33.535Z,19.72
2022-08-03T04:43:32.554Z,19.72
2022-08-03T04:44:32.576Z,19.75
2022-08-03T04:45:32.537Z,19.76
2022-08-03T04:46:32.448Z,19.80
2022-08-03T04:47:32.450Z,19.83
2022-08-03T04:48:33.384Z,19.84
2022-08-03T04:49:32.483Z,19.86
2022-08-03T04:50:32.413Z,19.88
2022-08-03T04:51:32.394Z,19.90
2022-08-03T04:52:32.443Z,19.91
2022-08-03T04:53:32.394Z,19.94
2022-08-03T04:54:33.322Z,19.97
2022-08-03T04:55:32.507Z,19.98
2022-08-03T04:56:32.378Z,20.03
2022-08-03T04:57:32.644Z,20.06
2022-08-03T04:58:32.293Z,20.10
2022-08-03T04:59:32.312Z,20.12
2022-08-03T05:00:32.271Z,20.15
2022-08-03T05:01:32.706Z,20.18
2022-08-03T05:02:32.445Z,20.21
2022-08-03T05:03:32.246Z,20.21
2022-08-03T05:04:32.232Z,20.24
2022-08-03T05:05:48.814Z,20.27
2022-08-03T05:06:33.288Z,20.31
2022-08-03T05:07:35.538Z,20.35
2022-08-03T05:08:32.168Z,20.39
2022-08-03T05:09:50.031Z,20.42
2022-08-03T05:10:33.166Z,20.49
2022-08-03T05:11:32.192Z,20.51
2022-08-03T05:12:32.992Z,20.54
2022-08-03T05:13:32.167Z,20.62
2022-08-03T05:14:32.110Z,20.68
2022-08-03T05:15:32.092Z,20.72
2022-08-03T05:16:32.090Z,20.77
2022-08-03T05:17:32.047Z,20.81
2022-08-03T05:18:32.135Z,20.89
2022-08-03T05:19:32.057Z,20.93
2022-08-03T05:20:32.712Z,20.99
2022-08-03T05:21:50.379Z,21.04
2022-08-03T05:22:32.995Z,21.09
2022-08-03T05:23:32.345Z,21.16
2022-08-03T05:24:31.980Z,21.17
2022-08-03T05:25:32.641Z,21.20
2022-08-03T05:26:31.964Z,21.23
2022-08-03T05:27:32.005Z,21.26
2022-08-03T05:28:32.152Z,21.29
2022-08-03T05:29:32.023Z,21.32
2022-08-03T05:30:34.319Z,21.38
2022-08-03T05:31:31.873Z,21.39
2022-08-03T05:32:31.852Z,21.44
2022-08-03T05:33:31.893Z,21.48
2022-08-03T05:34:31.863Z,21.51
2022-08-03T05:36:00.609Z,21.54
2022-08-03T05:36:32.880Z,21.56
2022-08-03T05:37:33.610Z,21.60
2022-08-03T05:38:34.012Z,21.63
2022-08-03T05:39:31.807Z,21.67
2022-08-03T05:40:31.797Z,21.71
2022-08-03T05:41:37.096Z,21.72
2022-08-03T05:42:32.724Z,21.76
2022-08-03T05:43:31.826Z,21.79
2022-08-03T05:44:31.754Z,21.81
2022-08-03T05:45:31.750Z,21.83
2022-08-03T05:46:34.730Z,21.90
2022-08-03T05:47:32.376Z,21.91
2022-08-03T05:48:31.670Z,21.94
2022-08-03T05:49:31.726Z,21.97
2022-08-03T05:50:32.653Z,21.98
2022-08-03T05:51:31.612Z,21.99
2022-08-03T05:52:31.609Z,22.02
2022-08-03T05:53:31.622Z,22.06
2022-08-03T05:54:56.306Z,22.06
2022-08-03T05:55:32.930Z,22.09
2022-08-03T05:56:32.083Z,22.12
2022-08-03T05:57:31.548Z,22.14
2022-08-03T05:58:31.518Z,22.19
2022-08-03T05:59:38.814Z,22.22
2022-08-03T06:00:32.515Z,22.25
2022-08-03T06:01:31.538Z,22.29
2022-08-03T06:02:31.538Z,22.31
2022-08-03T06:03:31.493Z,22.32
2022-08-03T06:04:31.461Z,22.35
2022-08-03T06:05:31.485Z,22.38
2022-08-03T06:06:32.443Z,22.41
2022-08-03T06:07:31.539Z,22.41
2022-08-03T06:08:32.057Z,22.47
2022-08-03T06:10:34.410Z,22.54
2022-08-03T06:10:35.857Z,22.59
2022-08-03T06:11:32.361Z,22.62
2022-08-03T06:12:31.480Z,22.65
2022-08-03T06:13:31.446Z,22.67
2022-08-03T06:14:31.324Z,22.67
2022-08-03T06:15:31.365Z,22.69
2022-08-03T06:16:31.564Z,22.75
2022-08-03T06:17:37.718Z,22.77
2022-08-03T06:18:32.271Z,22.80
2022-08-03T06:19:31.268Z,22.82
2022-08-03T06:20:31.338Z,22.82
2022-08-03T06:21:31.222Z,22.84
2022-08-03T06:22:31.289Z,22.90
2022-08-03T06:23:53.128Z,22.96
2022-08-03T06:24:32.180Z,23.01
2022-08-03T06:25:31.457Z,23.04
2022-08-03T06:26:31.773Z,23.08
2022-08-03T06:27:36.739Z,23.09
2022-08-03T06:28:53.303Z,23.15
2022-08-03T06:29:32.117Z,23.17
2022-08-03T06:30:31.122Z,23.19
2022-08-03T06:31:33.842Z,23.17
2022-08-03T06:32:31.080Z,23.22
2022-08-03T06:34:29.100Z,23.23
2022-08-03T06:34:35.694Z,23.26
2022-08-03T06:35:31.733Z,23.35
2022-08-03T06:36:31.052Z,23.40
2022-08-03T06:37:31.028Z,23.46
2022-08-03T06:38:31.023Z,23.49
2022-08-03T06:39:31.691Z,23.50
2022-08-03T06:40:30.979Z,23.52
2022-08-03T06:41:31.004Z,23.52
2022-08-03T06:42:31.962Z,23.52
2022-08-03T06:43:30.964Z,23.55
2022-08-03T06:44:31.944Z,23.62
2022-08-03T06:45:32.061Z,23.67
2022-08-03T06:46:30.928Z,23.72
2022-08-03T06:47:30.916Z,23.83
2022-08-03T06:48:31.644Z,23.90
2022-08-03T06:49:30.948Z,23.94
2022-08-03T06:50:30.932Z,24.01
2022-08-03T06:52:04.505Z,24.10
2022-08-03T06:52:38.096Z,24.14
2022-08-03T06:53:31.850Z,24.16
2022-08-03T06:54:33.273Z,24.23
2022-08-03T06:55:34.726Z,24.23
2022-08-03T06:56:31.756Z,24.23
2022-08-03T06:57:30.810Z,24.17
2022-08-03T06:58:30.778Z,24.13
2022-08-03T07:00:07.822Z,24.13
2022-08-03T07:00:31.714Z,24.13
2022-08-03T07:01:30.813Z,24.26
2022-08-03T07:02:30.889Z,24.38
2022-08-03T07:03:30.703Z,24.45
2022-08-03T07:04:30.681Z,24.44
2022-08-03T07:05:30.743Z,24.39
2022-08-03T07:06:30.638Z,24.44
2022-08-03T07:07:30.633Z,24.41
2022-08-03T07:08:33.338Z,24.39
2022-08-03T07:09:30.659Z,24.37
2022-08-03T07:10:34.564Z,24.37
2022-08-03T07:11:30.590Z,24.35
2022-08-03T07:12:30.629Z,24.47
2022-08-03T07:13:30.545Z,24.49
2022-08-03T07:14:30.575Z,24.50
2022-08-03T07:15:54.129Z,24.49
2022-08-03T07:16:31.523Z,24.50
2022-08-03T07:17:30.512Z,24.57
2022-08-03T07:18:30.517Z,24.68
2022-08-03T07:19:30.526Z,24.77
2022-08-03T07:20:32.614Z,24.85
2022-08-03T07:21:30.465Z,24.85
2022-08-03T07:22:30.470Z,24.79
2022-08-03T07:23:30.447Z,24.73
2022-08-03T07:24:30.464Z,24.64
2022-08-03T07:25:30.491Z,24.63
2022-08-03T07:26:30.371Z,24.63
2022-08-03T07:27:30.417Z,24.60
2022-08-03T07:28:30.371Z,24.60
2022-08-03T07:29:30.362Z,24.61
2022-08-03T07:30:30.339Z,24.67
2022-08-03T07:31:34.234Z,24.67
2022-08-03T07:32:30.293Z,24.69
2022-08-03T07:33:30.287Z,24.69
2022-08-03T07:34:30.298Z,24.68
2022-08-03T07:35:30.281Z,24.67
2022-08-03T07:36:30.240Z,24.64
2022-08-03T07:37:30.233Z,24.71
2022-08-03T07:38:30.254Z,24.69
2022-08-03T07:39:30.242Z,24.71
2022-08-03T07:40:31.676Z,24.79
2022-08-03T07:41:30.183Z,24.79
2022-08-03T07:42:30.168Z,24.83
2022-08-03T07:43:30.178Z,24.82
2022-08-03T07:44:30.133Z,24.85
2022-08-03T07:45:30.137Z,24.87
2022-08-03T07:46:30.129Z,24.85
2022-08-03T07:47:35.246Z,24.85
2022-08-03T07:48:31.124Z,24.91
2022-08-03T07:49:30.181Z,24.97
2022-08-03T07:50:30.089Z,24.98
2022-08-03T07:51:30.070Z,24.98
2022-08-03T07:52:30.045Z,25.01
2022-08-03T07:53:30.052Z,25.01
2022-08-03T07:54:30.033Z,25.00
2022-08-03T07:55:30.072Z,24.98
2022-08-03T07:56:30.013Z,25.06
2022-08-03T07:57:29.979Z,25.13
2022-08-03T07:58:29.982Z,25.20
2022-08-03T07:59:57.081Z,25.25
2022-08-03T08:00:30.960Z,25.27
2022-08-03T08:01:30.037Z,25.30
2022-08-03T08:02:29.923Z,25.38
2022-08-03T08:03:29.921Z,25.38
2022-08-03T08:04:30.934Z,25.42
2022-08-03T08:05:30.115Z,25.44
2022-08-03T08:06:29.878Z,25.44
2022-08-03T08:07:29.870Z,25.50
2022-08-03T08:08:29.860Z,25.56
2022-08-03T08:09:29.906Z,25.64
2022-08-03T08:10:29.844Z,25.67
2022-08-03T08:11:29.849Z,25.65
2022-08-03T08:12:29.810Z,25.57
2022-08-03T08:13:29.802Z,25.52
2022-08-03T08:14:29.779Z,25.56
2022-08-03T08:15:29.763Z,25.67
2022-08-03T08:16:30.746Z,25.72
2022-08-03T08:17:29.734Z,25.72
2022-08-03T08:18:29.746Z,25.72
2022-08-03T08:19:29.726Z,25.69
2022-08-03T08:20:31.282Z,25.72
2022-08-03T08:21:53.261Z,25.77
2022-08-03T08:22:31.435Z,25.75
2022-08-03T08:23:41.984Z,25.82
2022-08-03T08:24:30.627Z,25.86
2022-08-03T08:25:29.692Z,25.90
2022-08-03T08:26:29.622Z,25.99
2022-08-03T08:28:30.890Z,25.99
2022-08-03T08:28:33.736Z,26.01
2022-08-03T08:29:29.572Z,26.04
2022-08-03T08:30:29.580Z,26.06
2022-08-03T08:31:29.541Z,26.04
2022-08-03T08:32:29.531Z,26.04
2022-08-03T08:33:47.878Z,26.11
2022-08-03T08:34:34.436Z,26.20
2022-08-03T08:35:29.494Z,26.21
2022-08-03T08:36:29.490Z,26.22
2022-08-03T08:37:29.464Z,26.31
2022-08-03T08:38:29.444Z,26.36
2022-08-03T08:39:29.442Z,26.42
2022-08-03T08:40:29.436Z,26.50
2022-08-03T08:41:32.052Z,26.52
2022-08-03T08:42:29.409Z,26.54
2022-08-03T08:43:29.384Z,26.52
2022-08-03T08:44:29.364Z,26.44
2022-08-03T08:45:29.426Z,26.36
2022-08-03T08:46:29.356Z,26.36
2022-08-03T08:47:29.356Z,26.39
2022-08-03T08:48:30.327Z,26.46
2022-08-03T08:49:29.371Z,26.50
2022-08-03T08:50:29.408Z,26.54
2022-08-03T08:51:50.607Z,26.54
2022-08-03T08:52:32.157Z,26.54
2022-08-03T08:53:29.250Z,26.54
2022-08-03T08:54:29.244Z,26.54
2022-08-03T08:55:29.375Z,26.55
2022-08-03T08:56:29.220Z,26.50
2022-08-03T08:57:42.279Z,26.55
2022-08-03T08:58:30.210Z,26.57
2022-08-03T08:59:48.481Z,26.64
2022-08-03T09:00:30.185Z,26.77
2022-08-03T09:01:32.924Z,26.87
2022-08-03T09:02:29.172Z,26.94
2022-08-03T09:03:30.576Z,26.95
2022-08-03T09:04:29.109Z,26.94
2022-08-03T09:05:54.624Z,26.96
2022-08-03T09:06:30.121Z,26.98
2022-08-03T09:07:30.193Z,27.05
2022-08-03T09:08:29.070Z,27.04
2022-08-03T09:10:07.539Z,27.14
2022-08-03T09:10:30.051Z,27.28
2022-08-03T09:11:52.453Z,27.24
2022-08-03T09:12:41.530Z,27.35
2022-08-03T09:13:30.021Z,27.46
2022-08-03T09:14:36.616Z,27.62
2022-08-03T09:15:29.981Z,27.77
2022-08-03T09:16:29.030Z,27.88
2022-08-03T09:17:29.012Z,27.89
2022-08-03T09:18:29.321Z,27.88
2022-08-03T09:19:28.905Z,27.85
2022-08-03T09:20:28.909Z,27.88
2022-08-03T09:21:33.235Z,27.77
2022-08-03T09:22:29.894Z,27.86
2022-08-03T09:23:51.653Z,27.89
2022-08-03T09:24:41.036Z,27.74
2022-08-03T09:25:29.844Z,27.73
2022-08-03T09:26:28.925Z,27.85
2022-08-03T09:27:28.874Z,28.13
2022-08-03T09:28:59.859Z,28.23
2022-08-03T09:29:29.812Z,28.32
2022-08-03T09:30:34.625Z,28.19
2022-08-03T09:31:29.785Z,27.89
2022-08-03T09:32:28.753Z,27.95
2022-08-03T09:33:36.139Z,28.01
2022-08-03T09:34:29.733Z,28.21
2022-08-03T09:35:51.541Z,28.29
2022-08-03T09:36:29.727Z,28.19
2022-08-03T09:38:14.084Z,28.13
2022-08-03T09:38:29.687Z,28.11
2022-08-03T09:39:41.709Z,27.95
2022-08-03T09:40:29.660Z,28.01
2022-08-03T09:41:28.629Z,27.99
2022-08-03T09:42:28.655Z,27.98
2022-08-03T09:43:28.650Z,27.99
2022-08-03T09:44:28.612Z,28.03
2022-08-03T09:45:28.607Z,28.22
2022-08-03T09:46:28.640Z,28.41
2022-08-03T09:47:28.587Z,28.53
2022-08-03T09:48:28.581Z,28.56
2022-08-03T09:49:28.629Z,28.48
2022-08-03T09:50:28.542Z,28.46
2022-08-03T09:52:04.963Z,28.50
2022-08-03T09:52:38.063Z,28.70
2022-08-03T09:53:29.500Z,28.84
2022-08-03T09:54:28.483Z,28.87
2022-08-03T09:56:34.346Z,28.91
2022-08-03T09:56:35.912Z,28.88
2022-08-03T09:57:29.492Z,28.93
2022-08-03T09:58:28.440Z,28.96
2022-08-03T09:59:28.414Z,29.04
2022-08-03T10:00:28.392Z,28.80
2022-08-03T10:01:28.532Z,28.78
2022-08-03T10:02:28.415Z,28.59
2022-08-03T10:03:28.374Z,28.47
2022-08-03T10:04:28.359Z,28.33
2022-08-03T10:05:28.340Z,28.33
2022-08-03T10:06:28.956Z,28.47
2022-08-03T10:07:28.317Z,28.60
2022-08-03T10:08:28.360Z,28.72
2022-08-03T10:09:28.282Z,28.87
2022-08-03T10:10:30.371Z,28.80
2022-08-03T10:11:28.273Z,28.70
2022-08-03T10:12:28.264Z,28.75
2022-08-03T10:13:28.257Z,28.77
2022-08-03T10:14:28.231Z,28.82
2022-08-03T10:16:24.209Z,28.80
2022-08-03T10:16:29.191Z,28.87
2022-08-03T10:17:28.183Z,28.96
2022-08-03T10:18:28.202Z,28.96
2022-08-03T10:19:28.162Z,28.90
2022-08-03T10:20:28.182Z,28.93
2022-08-03T10:21:28.128Z,28.95
2022-08-03T10:22:28.119Z,28.82
2022-08-03T10:23:33.181Z,28.87
2022-08-03T10:24:29.089Z,28.97
2022-08-03T10:25:32.986Z,28.96
2022-08-03T10:26:29.064Z,29.00
2022-08-03T10:27:28.064Z,28.96
2022-08-03T10:28:28.064Z,29.07
2022-08-03T10:29:28.079Z,29.06
2022-08-03T10:30:28.018Z,29.20
2022-08-03T10:31:28.067Z,29.16
2022-08-03T10:32:27.995Z,28.90
2022-08-03T10:33:51.511Z,28.75
2022-08-03T10:34:28.982Z,28.69
2022-08-03T10:35:27.948Z,28.72
2022-08-03T10:36:28.159Z,28.88
2022-08-03T10:37:27.940Z,28.88
2022-08-03T10:38:27.925Z,28.82
2022-08-03T10:39:27.889Z,28.95
2022-08-03T10:40:55.801Z,29.19
2022-08-03T10:41:28.900Z,29.31
2022-08-03T10:42:27.862Z,29.35
2022-08-03T10:43:27.860Z,29.49
2022-08-03T10:44:27.857Z,29.50
2022-08-03T10:45:27.829Z,29.35
2022-08-03T10:46:27.813Z,29.15
2022-08-03T10:47:27.794Z,29.08
2022-08-03T10:48:27.796Z,29.03
2022-08-03T10:49:34.393Z,29.15
2022-08-03T10:50:28.778Z,29.34
2022-08-03T10:51:27.755Z,29.43
2022-08-03T10:52:33.737Z,29.47
2022-08-03T10:53:28.731Z,29.41
2022-08-03T10:54:27.937Z,29.38
2022-08-03T10:55:27.693Z,29.49
2022-08-03T10:56:27.693Z,29.45
2022-08-03T10:57:28.681Z,29.45
2022-08-03T10:58:30.813Z,29.52
2022-08-03T10:59:28.279Z,29.75
2022-08-03T11:00:27.716Z,29.97
2022-08-03T11:01:27.626Z,30.15
2022-08-03T11:02:28.714Z,30.38
2022-08-03T11:03:27.615Z,30.47
2022-08-03T11:04:27.610Z,30.37
2022-08-03T11:05:27.587Z,30.33
2022-08-03T11:06:28.367Z,30.05
2022-08-03T11:07:28.596Z,30.15
2022-08-03T11:08:27.532Z,30.23
2022-08-03T11:09:27.526Z,30.26
2022-08-03T11:10:31.532Z,30.34
2022-08-03T11:11:27.503Z,30.09
2022-08-03T11:12:30.194Z,30.14
2022-08-03T11:13:27.482Z,30.24
2022-08-03T11:14:27.476Z,30.16
2022-08-03T11:15:31.742Z,30.12
2022-08-03T11:16:27.535Z,30.00
2022-08-03T11:17:27.424Z,29.99
2022-08-03T11:18:27.486Z,30.12
2022-08-03T11:19:27.757Z,30.40
2022-08-03T11:20:27.391Z,30.38
2022-08-03T11:21:30.344Z,30.45
2022-08-03T11:22:27.360Z,30.52
2022-08-03T11:24:04.859Z,30.67
2022-08-03T11:24:28.396Z,30.64
2022-08-03T11:25:53.559Z,30.65
2022-08-03T11:26:28.360Z,30.72
2022-08-03T11:27:27.302Z,30.72
2022-08-03T11:28:27.299Z,30.30
2022-08-03T11:29:27.306Z,29.97
2022-08-03T11:30:27.744Z,29.99
2022-08-03T11:32:28.238Z,30.07
2022-08-03T11:33:27.221Z,29.96
2022-08-03T11:34:27.246Z,29.82
2022-08-03T11:35:27.232Z,29.68
2022-08-03T11:36:32.412Z,29.65
2022-08-03T11:37:33.157Z,29.87
2022-08-03T11:38:28.169Z,30.21
2022-08-03T11:39:27.159Z,30.49
2022-08-03T11:40:27.143Z,30.62
2022-08-03T11:41:27.121Z,30.90
2022-08-03T11:42:27.115Z,31.20
2022-08-03T11:43:30.819Z,31.38
2022-08-03T11:44:27.073Z,31.45
2022-08-03T11:45:27.084Z,31.53
2022-08-03T11:46:29.342Z,31.60
2022-08-03T11:47:27.080Z,31.58
2022-08-03T11:48:27.032Z,31.39
2022-08-03T11:49:27.031Z,31.28
2022-08-03T11:50:27.025Z,31.28
2022-08-03T11:51:27.015Z,31.35
2022-08-03T11:52:28.737Z,31.48
2022-08-03T11:53:26.975Z,31.49
2022-08-03T11:54:26.977Z,31.57
2022-08-03T11:55:30.588Z,31.62
2022-08-03T11:56:26.929Z,31.58
2022-08-03T11:58:58.106Z,31.26
2022-08-03T11:59:01.382Z,31.38
2022-08-03T11:59:27.913Z,31.43
2022-08-03T12:00:26.903Z,31.72
2022-08-03T12:01:26.887Z,31.85
2022-08-03T12:02:26.878Z,32.10
2022-08-03T12:03:26.941Z,32.30
2022-08-03T12:04:26.845Z,32.15
2022-08-03T12:05:26.857Z,32.10
2022-08-03T12:06:27.039Z,32.30
2022-08-03T12:08:04.235Z,32.40
2022-08-03T12:08:27.798Z,32.36
2022-08-03T12:09:26.787Z,32.10
2022-08-03T12:10:26.829Z,32.29
2022-08-03T12:11:26.764Z,32.44
2022-08-03T12:12:26.783Z,32.55
2022-08-03T12:14:27.376Z,32.71
2022-08-03T12:14:49.546Z,32.81
2022-08-03T12:15:27.716Z,32.79
2022-08-03T12:16:26.704Z,32.93
2022-08-03T12:17:27.642Z,32.74
2022-08-03T12:18:26.683Z,32.88
2022-08-03T12:19:26.658Z,32.98
2022-08-03T12:20:34.633Z,33.07
2022-08-03T12:21:27.677Z,33.13
2022-08-03T12:22:26.635Z,32.98
2022-08-03T12:23:26.617Z,32.70
2022-08-03T12:24:26.971Z,32.76
2022-08-03T12:25:38.754Z,32.66
2022-08-03T12:26:27.600Z,32.77
2022-08-03T12:27:26.605Z,32.96
2022-08-03T12:28:36.353Z,33.06
2022-08-03T12:29:27.567Z,33.33
2022-08-03T12:30:26.591Z,33.17
2022-08-03T12:31:26.556Z,32.92
2022-08-03T12:32:26.516Z,33.13
2022-08-03T12:33:26.513Z,33.39
2022-08-03T12:34:26.481Z,33.68
2022-08-03T12:35:26.514Z,33.70
2022-08-03T12:36:26.557Z,33.53
2022-08-03T12:37:26.463Z,33.65
2022-08-03T12:38:26.445Z,33.89
2022-08-03T12:39:26.431Z,33.95
2022-08-03T12:40:28.260Z,33.57
2022-08-03T12:41:26.418Z,33.42
2022-08-03T12:42:26.399Z,32.86
2022-08-03T12:43:26.428Z,32.95
2022-08-03T12:44:27.414Z,33.22
2022-08-03T12:45:26.362Z,33.42
2022-08-03T12:46:26.391Z,33.57
2022-08-03T12:47:26.340Z,33.67
2022-08-03T12:48:27.717Z,33.70
2022-08-03T12:49:26.445Z,33.55
2022-08-03T12:50:26.330Z,33.19
2022-08-03T12:51:26.308Z,33.26
2022-08-03T12:52:26.271Z,33.57
2022-08-03T12:53:26.271Z,33.86